sensor_id;sensor_type;location;lat;lon;timestamp;pressure;altitude;pressure_sealevel;temperature;humidity
13209;BME280;6669;42.678;23.332;2024-02-26T00:00:00;94112.78;;;8.14;100.00
13209;BME280;6669;42.678;23.332;2024-02-26T00:02:28;94112.13;;;8.21;100.00
13209;BME280;6669;42.678;23.332;2024-02-26T00:04:56;94109.88;;;8.17;100.00
13209;BME280;6669;42.678;23.332;2024-02-26T00:07:25;94112.66;;;8.16;100.00
13209;BME280;6669;42.678;23.332;2024-02-26T00:09:53;94111.22;;;8.13;100.00
13209;BME280;6669;42.678;23.332;2024-02-26T00:12:21;94111.22;;;8.13;100.00
13209;BME280;6669;42.678;23.332;2024-02-26T00:14:51;94102.13;;;8.09;100.00
13209;BME280;6669;42.678;23.332;2024-02-26T00:17:20;94102.97;;;8.10;100.00
13209;BME280;6669;42.678;23.332;2024-02-26T00:19:48;94114.22;;;8.17;100.00
13209;BME280;6669;42.678;23.332;2024-02-26T00:22:17;94111.50;;;8.18;100.00
13209;BME280;6669;42.678;23.332;2024-02-26T00:24:45;94099.81;;;8.23;100.00
13209;BME280;6669;42.678;23.332;2024-02-26T00:27:13;94093.63;;;8.32;100.00
13209;BME280;6669;42.678;23.332;2024-02-26T00:29:41;94096.19;;;8.32;100.00
13209;BME280;6669;42.678;23.332;2024-02-26T00:32:11;94091.09;;;8.24;100.00
13209;BME280;6669;42.678;23.332;2024-02-26T00:34:39;94091.03;;;8.32;100.00
13209;BME280;6669;42.678;23.332;2024-02-26T00:37:07;94079.19;;;8.38;100.00
13209;BME280;6669;42.678;23.332;2024-02-26T00:39:35;94082.88;;;8.43;100.00
13209;BME280;6669;42.678;23.332;2024-02-26T00:42:04;94081.09;;;8.44;100.00
13209;BME280;6669;42.678;23.332;2024-02-26T00:44:32;94079.25;;;8.53;100.00
13209;BME280;6669;42.678;23.332;2024-02-26T00:47:01;94070.81;;;8.59;100.00
13209;BME280;6669;42.678;23.332;2024-02-26T00:49:30;94076.53;;;8.54;100.00
13209;BME280;6669;42.678;23.332;2024-02-26T00:51:58;94072.41;;;8.60;100.00
13209;BME280;6669;42.678;23.332;2024-02-26T00:54:26;94065.00;;;8.57;100.00
13209;BME280;6669;42.678;23.332;2024-02-26T00:56:54;94071.53;;;8.44;100.00
13209;BME280;6669;42.678;23.332;2024-02-26T00:59:23;94067.03;;;8.46;100.00
13209;BME280;6669;42.678;23.332;2024-02-26T01:01:51;94062.59;;;8.24;100.00
13209;BME280;6669;42.678;23.332;2024-02-26T01:04:19;94060.47;;;8.27;100.00
13209;BME280;6669;42.678;23.332;2024-02-26T01:06:49;94060.78;;;8.32;100.00
13209;BME280;6669;42.678;23.332;2024-02-26T01:09:17;94060.13;;;8.30;100.00
13209;BME280;6669;42.678;23.332;2024-02-26T01:11:45;94051.84;;;8.35;100.00
13209;BME280;6669;42.678;23.332;2024-02-26T01:14:14;94061.22;;;8.36;100.00
13209;BME280;6669;42.678;23.332;2024-02-26T01:16:42;94058.03;;;8.26;100.00
13209;BME280;6669;42.678;23.332;2024-02-26T01:19:10;94060.22;;;8.14;100.00
13209;BME280;6669;42.678;23.332;2024-02-26T01:21:39;94064.25;;;8.16;100.00
13209;BME280;6669;42.678;23.332;2024-02-26T01:24:09;94060.19;;;8.22;100.00
13209;BME280;6669;42.678;23.332;2024-02-26T01:26:37;94063.22;;;8.26;100.00
13209;BME280;6669;42.678;23.332;2024-02-26T01:29:06;94054.19;;;8.22;100.00
13209;BME280;6669;42.678;23.332;2024-02-26T01:31:34;94057.91;;;8.27;100.00
13209;BME280;6669;42.678;23.332;2024-02-26T01:34:02;94052.81;;;8.34;100.00
13209;BME280;6669;42.678;23.332;2024-02-26T01:36:31;94048.97;;;8.30;100.00
13209;BME280;6669;42.678;23.332;2024-02-26T01:38:59;94052.47;;;8.37;100.00
13209;BME280;6669;42.678;23.332;2024-02-26T01:41:28;94051.28;;;8.25;100.00
13209;BME280;6669;42.678;23.332;2024-02-26T01:43:57;94044.94;;;8.27;100.00
13209;BME280;6669;42.678;23.332;2024-02-26T01:46:25;94040.75;;;8.26;100.00
13209;BME280;6669;42.678;23.332;2024-02-26T01:48:53;94040.91;;;8.25;100.00
13209;BME280;6669;42.678;23.332;2024-02-26T01:51:22;94043.44;;;8.33;100.00
13209;BME280;6669;42.678;23.332;2024-02-26T01:53:51;94040.56;;;8.28;100.00
13209;BME280;6669;42.678;23.332;2024-02-26T01:56:20;94040.56;;;8.28;100.00
13209;BME280;6669;42.678;23.332;2024-02-26T01:58:50;94037.00;;;8.29;100.00
13209;BME280;6669;42.678;23.332;2024-02-26T02:01:19;94037.31;;;8.26;100.00
13209;BME280;6669;42.678;23.332;2024-02-26T02:03:49;94037.31;;;8.26;100.00
13209;BME280;6669;42.678;23.332;2024-02-26T02:06:18;94042.22;;;8.21;100.00
13209;BME280;6669;42.678;23.332;2024-02-26T02:08:47;94035.88;;;8.23;100.00
13209;BME280;6669;42.678;23.332;2024-02-26T02:11:16;94033.16;;;8.25;100.00
13209;BME280;6669;42.678;23.332;2024-02-26T02:13:45;94033.75;;;8.27;100.00
13209;BME280;6669;42.678;23.332;2024-02-26T02:16:14;94034.00;;;8.40;100.00
13209;BME280;6669;42.678;23.332;2024-02-26T02:18:42;94035.41;;;8.51;100.00
13209;BME280;6669;42.678;23.332;2024-02-26T02:21:12;94032.88;;;8.43;100.00
13209;BME280;6669;42.678;23.332;2024-02-26T02:23:40;94034.16;;;8.39;100.00
13209;BME280;6669;42.678;23.332;2024-02-26T02:26:13;94038.56;;;8.38;100.00
13209;BME280;6669;42.678;23.332;2024-02-26T02:28:42;94038.84;;;8.43;100.00
13209;BME280;6669;42.678;23.332;2024-02-26T02:31:10;94041.41;;;8.52;100.00
13209;BME280;6669;42.678;23.332;2024-02-26T02:33:39;94031.94;;;8.59;100.00
13209;BME280;6669;42.678;23.332;2024-02-26T02:36:08;94028.38;;;8.60;100.00
13209;BME280;6669;42.678;23.332;2024-02-26T02:38:48;94034.22;;;8.62;100.00
13209;BME280;6669;42.678;23.332;2024-02-26T02:41:17;94033.34;;;8.46;100.00
13209;BME280;6669;42.678;23.332;2024-02-26T02:43:46;94038.47;;;8.55;100.00
13209;BME280;6669;42.678;23.332;2024-02-26T02:46:14;94032.91;;;8.58;100.00
13209;BME280;6669;42.678;23.332;2024-02-26T02:48:42;94033.38;;;8.61;100.00
13209;BME280;6669;42.678;23.332;2024-02-26T02:51:11;94037.78;;;8.61;100.00
13209;BME280;6669;42.678;23.332;2024-02-26T02:53:41;94037.25;;;8.65;100.00
13209;BME280;6669;42.678;23.332;2024-02-26T02:56:09;94046.91;;;8.72;100.00
13209;BME280;6669;42.678;23.332;2024-02-26T02:58:37;94044.25;;;8.80;100.00
13209;BME280;6669;42.678;23.332;2024-02-26T03:01:05;94052.13;;;8.87;100.00
13209;BME280;6669;42.678;23.332;2024-02-26T03:03:34;94049.03;;;8.91;100.00
13209;BME280;6669;42.678;23.332;2024-02-26T03:06:03;94057.84;;;8.82;100.00
13209;BME280;6669;42.678;23.332;2024-02-26T03:08:32;94055.50;;;8.72;100.00
13209;BME280;6669;42.678;23.332;2024-02-26T03:11:05;94055.81;;;8.69;100.00
13209;BME280;6669;42.678;23.332;2024-02-26T03:13:33;94060.91;;;8.62;100.00
13209;BME280;6669;42.678;23.332;2024-02-26T03:16:04;94052.94;;;8.64;100.00
13209;BME280;6669;42.678;23.332;2024-02-26T03:18:32;94053.59;;;8.66;100.00
13209;BME280;6669;42.678;23.332;2024-02-26T03:21:01;94050.25;;;8.57;100.00
13209;BME280;6669;42.678;23.332;2024-02-26T03:23:30;94051.78;;;8.52;100.00
13209;BME280;6669;42.678;23.332;2024-02-26T03:25:59;94040.88;;;8.56;100.00
13209;BME280;6669;42.678;23.332;2024-02-26T03:28:29;94035.88;;;8.55;100.00
13209;BME280;6669;42.678;23.332;2024-02-26T03:30:57;94027.03;;;8.49;100.00
13209;BME280;6669;42.678;23.332;2024-02-26T03:33:26;94031.06;;;8.52;100.00
13209;BME280;6669;42.678;23.332;2024-02-26T03:35:54;94029.44;;;8.50;100.00
13209;BME280;6669;42.678;23.332;2024-02-26T03:38:22;94026.56;;;8.37;100.00
13209;BME280;6669;42.678;23.332;2024-02-26T03:40:51;94026.28;;;8.32;100.00
13209;BME280;6669;42.678;23.332;2024-02-26T03:43:19;94029.22;;;8.29;100.00
13209;BME280;6669;42.678;23.332;2024-02-26T03:45:48;94029.84;;;8.31;100.00
13209;BME280;6669;42.678;23.332;2024-02-26T03:48:17;94032.44;;;8.31;100.00
13209;BME280;6669;42.678;23.332;2024-02-26T03:50:45;94027.53;;;8.36;100.00
13209;BME280;6669;42.678;23.332;2024-02-26T03:53:13;94024.44;;;8.41;100.00
13209;BME280;6669;42.678;23.332;2024-02-26T03:55:41;94021.94;;;8.32;100.00
13209;BME280;6669;42.678;23.332;2024-02-26T03:58:12;94021.78;;;8.26;100.00
13209;BME280;6669;42.678;23.332;2024-02-26T04:00:40;94020.22;;;8.25;100.00
13209;BME280;6669;42.678;23.332;2024-02-26T04:03:10;94025.59;;;8.15;100.00
13209;BME280;6669;42.678;23.332;2024-02-26T04:05:38;94023.50;;;8.10;100.00
13209;BME280;6669;42.678;23.332;2024-02-26T04:08:06;94013.81;;;8.12;100.00
13209;BME280;6669;42.678;23.332;2024-02-26T04:10:34;94010.84;;;8.15;100.00
13209;BME280;6669;42.678;23.332;2024-02-26T04:13:07;94010.25;;;8.13;100.00
13209;BME280;6669;42.678;23.332;2024-02-26T04:15:35;94020.41;;;8.15;100.00
13209;BME280;6669;42.678;23.332;2024-02-26T04:18:03;94013.81;;;8.12;100.00
13209;BME280;6669;42.678;23.332;2024-02-26T04:20:33;93998.31;;;8.04;100.00
13209;BME280;6669;42.678;23.332;2024-02-26T04:23:02;94002.50;;;8.05;100.00
13209;BME280;6669;42.678;23.332;2024-02-26T04:25:30;94005.06;;;8.13;100.00
13209;BME280;6669;42.678;23.332;2024-02-26T04:27:58;94000.50;;;8.15;100.00
13209;BME280;6669;42.678;23.332;2024-02-26T04:30:27;93998.56;;;8.17;100.00
13209;BME280;6669;42.678;23.332;2024-02-26T04:32:55;93994.53;;;8.15;100.00
13209;BME280;6669;42.678;23.332;2024-02-26T04:35:23;94003.28;;;8.14;100.00
13209;BME280;6669;42.678;23.332;2024-02-26T04:37:53;94008.81;;;8.11;100.00
13209;BME280;6669;42.678;23.332;2024-02-26T04:40:21;94013.69;;;8.06;100.00
13209;BME280;6669;42.678;23.332;2024-02-26T04:42:50;94008.81;;;8.11;100.00
13209;BME280;6669;42.678;23.332;2024-02-26T04:45:18;94008.94;;;8.09;100.00
13209;BME280;6669;42.678;23.332;2024-02-26T04:47:47;94014.78;;;8.11;100.00
13209;BME280;6669;42.678;23.332;2024-02-26T04:50:15;93996.66;;;8.11;100.00
13209;BME280;6669;42.678;23.332;2024-02-26T04:52:43;94003.91;;;8.16;100.00
13209;BME280;6669;42.678;23.332;2024-02-26T04:55:13;94015.25;;;8.15;100.00
13209;BME280;6669;42.678;23.332;2024-02-26T04:57:41;94016.28;;;8.06;100.00
13209;BME280;6669;42.678;23.332;2024-02-26T05:00:11;94013.97;;;8.11;100.00
13209;BME280;6669;42.678;23.332;2024-02-26T05:02:39;94018.50;;;8.09;100.00
13209;BME280;6669;42.678;23.332;2024-02-26T05:05:08;94023.97;;;8.14;100.00
13209;BME280;6669;42.678;23.332;2024-02-26T05:07:39;94029.66;;;8.09;100.00
13209;BME280;6669;42.678;23.332;2024-02-26T05:10:08;94028.22;;;8.07;100.00
13209;BME280;6669;42.678;23.332;2024-02-26T05:12:38;94032.13;;;8.02;100.00
13209;BME280;6669;42.678;23.332;2024-02-26T05:15:08;94032.78;;;8.05;100.00
13209;BME280;6669;42.678;23.332;2024-02-26T05:17:36;94044.56;;;8.07;100.00
13209;BME280;6669;42.678;23.332;2024-02-26T05:20:05;94054.25;;;8.13;100.00
13209;BME280;6669;42.678;23.332;2024-02-26T05:22:34;94054.94;;;8.07;100.00
13209;BME280;6669;42.678;23.332;2024-02-26T05:25:03;94050.22;;;8.11;100.00
13209;BME280;6669;42.678;23.332;2024-02-26T05:27:31;94052.66;;;8.04;100.00
13209;BME280;6669;42.678;23.332;2024-02-26T05:30:01;94055.25;;;8.04;100.00
13209;BME280;6669;42.678;23.332;2024-02-26T05:32:30;94058.59;;;8.13;100.00
13209;BME280;6669;42.678;23.332;2024-02-26T05:34:58;94070.09;;;8.10;100.00
13209;BME280;6669;42.678;23.332;2024-02-26T05:37:27;94069.88;;;7.97;100.00
13209;BME280;6669;42.678;23.332;2024-02-26T05:39:55;94070.00;;;7.95;100.00
13209;BME280;6669;42.678;23.332;2024-02-26T05:42:23;94073.06;;;7.99;100.00
13209;BME280;6669;42.678;23.332;2024-02-26T05:44:51;94076.50;;;7.99;100.00
13209;BME280;6669;42.678;23.332;2024-02-26T05:47:21;94079.56;;;7.95;100.00
13209;BME280;6669;42.678;23.332;2024-02-26T05:49:52;94077.56;;;8.05;100.00
13209;BME280;6669;42.678;23.332;2024-02-26T05:52:21;94072.88;;;8.09;100.00
13209;BME280;6669;42.678;23.332;2024-02-26T05:54:52;94086.59;;;8.17;100.00
13209;BME280;6669;42.678;23.332;2024-02-26T05:57:20;94079.44;;;8.19;100.00
13209;BME280;6669;42.678;23.332;2024-02-26T05:59:49;94068.88;;;8.29;100.00
13209;BME280;6669;42.678;23.332;2024-02-26T06:02:17;94081.31;;;8.34;100.00
13209;BME280;6669;42.678;23.332;2024-02-26T06:04:47;94074.81;;;8.38;100.00
13209;BME280;6669;42.678;23.332;2024-02-26T06:07:15;94083.00;;;8.50;100.00
13209;BME280;6669;42.678;23.332;2024-02-26T06:09:43;94086.09;;;8.45;100.00
13209;BME280;6669;42.678;23.332;2024-02-26T06:12:11;94093.94;;;8.60;100.00
13209;BME280;6669;42.678;23.332;2024-02-26T06:14:39;94094.75;;;8.61;100.00
13209;BME280;6669;42.678;23.332;2024-02-26T06:17:07;94093.50;;;8.57;100.00
13209;BME280;6669;42.678;23.332;2024-02-26T06:19:36;94092.22;;;8.53;100.00
13209;BME280;6669;42.678;23.332;2024-02-26T06:22:05;94094.66;;;8.54;100.00
13209;BME280;6669;42.678;23.332;2024-02-26T06:24:34;94094.41;;;8.64;100.00
13209;BME280;6669;42.678;23.332;2024-02-26T06:27:02;94096.78;;;8.74;100.00
13209;BME280;6669;42.678;23.332;2024-02-26T06:29:30;94088.81;;;8.75;100.00
13209;BME280;6669;42.678;23.332;2024-02-26T06:31:59;94091.09;;;8.78;100.00
13209;BME280;6669;42.678;23.332;2024-02-26T06:34:27;94094.94;;;8.82;100.00
13209;BME280;6669;42.678;23.332;2024-02-26T06:36:55;94092.97;;;8.85;100.00
13209;BME280;6669;42.678;23.332;2024-02-26T06:39:25;94096.25;;;8.78;100.00
13209;BME280;6669;42.678;23.332;2024-02-26T06:41:53;94090.63;;;8.75;100.00
13209;BME280;6669;42.678;23.332;2024-02-26T06:44:27;94088.22;;;8.73;100.00
13209;BME280;6669;42.678;23.332;2024-02-26T06:46:58;94089.38;;;8.71;100.00
13209;BME280;6669;42.678;23.332;2024-02-26T06:49:27;94096.41;;;8.77;100.00
13209;BME280;6669;42.678;23.332;2024-02-26T06:51:56;94090.25;;;8.78;100.00
13209;BME280;6669;42.678;23.332;2024-02-26T06:54:25;94096.53;;;8.83;100.00
13209;BME280;6669;42.678;23.332;2024-02-26T06:56:54;94086.41;;;8.74;100.00
13209;BME280;6669;42.678;23.332;2024-02-26T06:59:22;94095.41;;;8.86;100.00
13209;BME280;6669;42.678;23.332;2024-02-26T07:01:50;94089.25;;;8.87;100.00
13209;BME280;6669;42.678;23.332;2024-02-26T07:04:18;94097.13;;;8.94;100.00
13209;BME280;6669;42.678;23.332;2024-02-26T07:06:47;94102.13;;;8.95;100.00
13209;BME280;6669;42.678;23.332;2024-02-26T07:09:15;94097.91;;;8.94;100.00
13209;BME280;6669;42.678;23.332;2024-02-26T07:11:45;94103.03;;;9.03;100.00
13209;BME280;6669;42.678;23.332;2024-02-26T07:14:13;94102.22;;;9.02;100.00
13209;BME280;6669;42.678;23.332;2024-02-26T07:16:41;94109.19;;;9.02;100.00
13209;BME280;6669;42.678;23.332;2024-02-26T07:19:10;94104.47;;;9.05;100.00
13209;BME280;6669;42.678;23.332;2024-02-26T07:21:38;94115.31;;;9.09;100.00
13209;BME280;6669;42.678;23.332;2024-02-26T07:24:08;94113.00;;;9.14;100.00
13209;BME280;6669;42.678;23.332;2024-02-26T07:26:36;94112.63;;;9.17;100.00
13209;BME280;6669;42.678;23.332;2024-02-26T07:29:05;94103.34;;;9.23;100.00
13209;BME280;6669;42.678;23.332;2024-02-26T07:31:34;94101.31;;;9.33;100.00
13209;BME280;6669;42.678;23.332;2024-02-26T07:34:02;94096.84;;;9.42;100.00
13209;BME280;6669;42.678;23.332;2024-02-26T07:36:31;94103.09;;;9.47;100.00
13209;BME280;6669;42.678;23.332;2024-02-26T07:38:59;94110.38;;;9.52;100.00
13209;BME280;6669;42.678;23.332;2024-02-26T07:41:28;94115.00;;;9.57;100.00
13209;BME280;6669;42.678;23.332;2024-02-26T07:43:56;94114.66;;;9.60;100.00
13209;BME280;6669;42.678;23.332;2024-02-26T07:46:26;94117.63;;;9.72;100.00
13209;BME280;6669;42.678;23.332;2024-02-26T07:48:54;94114.13;;;9.79;100.00
13209;BME280;6669;42.678;23.332;2024-02-26T07:51:23;94103.28;;;9.91;100.00
13209;BME280;6669;42.678;23.332;2024-02-26T07:53:52;94108.22;;;10.01;100.00
13209;BME280;6669;42.678;23.332;2024-02-26T07:56:20;94114.91;;;10.10;100.00
13209;BME280;6669;42.678;23.332;2024-02-26T07:58:49;94100.47;;;10.22;100.00
13209;BME280;6669;42.678;23.332;2024-02-26T08:01:17;94103.59;;;10.33;100.00
13209;BME280;6669;42.678;23.332;2024-02-26T08:03:46;94102.16;;;10.45;100.00
13209;BME280;6669;42.678;23.332;2024-02-26T08:06:16;94099.72;;;10.43;100.00
13209;BME280;6669;42.678;23.332;2024-02-26T08:08:44;94099.63;;;10.52;100.00
13209;BME280;6669;42.678;23.332;2024-02-26T08:11:14;94096.56;;;10.48;100.00
13209;BME280;6669;42.678;23.332;2024-02-26T08:13:44;94102.59;;;10.70;100.00
13209;BME280;6669;42.678;23.332;2024-02-26T08:16:12;94099.88;;;10.78;100.00
13209;BME280;6669;42.678;23.332;2024-02-26T08:18:40;94100.38;;;10.89;100.00
13209;BME280;6669;42.678;23.332;2024-02-26T08:21:12;94102.97;;;10.89;100.00
13209;BME280;6669;42.678;23.332;2024-02-26T08:23:43;94098.44;;;10.76;100.00
13209;BME280;6669;42.678;23.332;2024-02-26T08:26:11;94099.47;;;11.03;100.00
13209;BME280;6669;42.678;23.332;2024-02-26T08:28:39;94095.19;;;11.17;100.00
13209;BME280;6669;42.678;23.332;2024-02-26T08:31:08;94105.66;;;11.24;100.00
13209;BME280;6669;42.678;23.332;2024-02-26T08:33:36;94091.13;;;11.36;100.00
13209;BME280;6669;42.678;23.332;2024-02-26T08:36:05;94099.63;;;11.52;100.00
13209;BME280;6669;42.678;23.332;2024-02-26T08:38:35;94099.50;;;11.60;100.00
13209;BME280;6669;42.678;23.332;2024-02-26T08:41:04;94088.88;;;11.61;100.00
13209;BME280;6669;42.678;23.332;2024-02-26T08:43:32;94094.75;;;11.70;100.00
13209;BME280;6669;42.678;23.332;2024-02-26T08:46:00;94093.91;;;11.63;100.00
13209;BME280;6669;42.678;23.332;2024-02-26T08:48:29;94095.94;;;11.68;100.00
13209;BME280;6669;42.678;23.332;2024-02-26T08:50:58;94093.75;;;11.71;100.00
13209;BME280;6669;42.678;23.332;2024-02-26T08:53:26;94093.22;;;11.83;100.00
13209;BME280;6669;42.678;23.332;2024-02-26T08:56:09;94096.06;;;11.94;100.00
13209;BME280;6669;42.678;23.332;2024-02-26T08:58:38;94091.34;;;12.12;100.00
13209;BME280;6669;42.678;23.332;2024-02-26T09:01:06;94091.59;;;12.17;100.00
13209;BME280;6669;42.678;23.332;2024-02-26T09:03:34;94082.19;;;12.22;100.00
13209;BME280;6669;42.678;23.332;2024-02-26T09:06:04;94085.84;;;12.35;100.00
13209;BME280;6669;42.678;23.332;2024-02-26T09:08:33;94088.06;;;12.38;100.00
13209;BME280;6669;42.678;23.332;2024-02-26T09:11:03;94082.25;;;12.42;100.00
13209;BME280;6669;42.678;23.332;2024-02-26T09:13:33;94077.63;;;12.31;100.00
13209;BME280;6669;42.678;23.332;2024-02-26T09:16:01;94080.47;;;12.50;100.00
13209;BME280;6669;42.678;23.332;2024-02-26T09:18:29;94084.88;;;12.56;100.00
13209;BME280;6669;42.678;23.332;2024-02-26T09:20:58;94081.28;;;12.57;100.00
13209;BME280;6669;42.678;23.332;2024-02-26T09:23:26;94080.50;;;12.63;100.00
13209;BME280;6669;42.678;23.332;2024-02-26T09:25:54;94062.06;;;12.78;100.00
13209;BME280;6669;42.678;23.332;2024-02-26T09:28:22;94069.09;;;12.84;100.00
13209;BME280;6669;42.678;23.332;2024-02-26T09:30:52;94070.91;;;12.77;100.00
13209;BME280;6669;42.678;23.332;2024-02-26T09:33:21;94069.09;;;12.84;100.00
13209;BME280;6669;42.678;23.332;2024-02-26T09:35:49;94072.91;;;12.88;100.00
13209;BME280;6669;42.678;23.332;2024-02-26T09:38:17;94068.31;;;12.97;100.00
13209;BME280;6669;42.678;23.332;2024-02-26T09:40:46;94069.28;;;13.09;100.00
13209;BME280;6669;42.678;23.332;2024-02-26T09:43:14;94063.69;;;13.06;100.00
13209;BME280;6669;42.678;23.332;2024-02-26T09:45:43;94059.47;;;12.98;100.00
13209;BME280;6669;42.678;23.332;2024-02-26T09:48:14;94057.66;;;12.92;100.00
13209;BME280;6669;42.678;23.332;2024-02-26T09:50:44;94058.88;;;12.96;100.00
13209;BME280;6669;42.678;23.332;2024-02-26T09:53:13;94061.69;;;13.01;100.00
13209;BME280;6669;42.678;23.332;2024-02-26T09:55:42;94066.69;;;13.03;100.00
13209;BME280;6669;42.678;23.332;2024-02-26T09:58:10;94060.88;;;13.01;100.00
13209;BME280;6669;42.678;23.332;2024-02-26T10:00:47;94059.66;;;13.17;100.00
13209;BME280;6669;42.678;23.332;2024-02-26T10:03:21;94050.00;;;13.31;100.00
13209;BME280;6669;42.678;23.332;2024-02-26T10:05:50;94047.22;;;13.19;100.00
13209;BME280;6669;42.678;23.332;2024-02-26T10:08:23;94053.03;;;13.28;100.00
13209;BME280;6669;42.678;23.332;2024-02-26T10:10:52;94051.44;;;13.47;100.00
13209;BME280;6669;42.678;23.332;2024-02-26T10:13:20;94055.00;;;13.59;100.00
13209;BME280;6669;42.678;23.332;2024-02-26T10:15:49;94050.03;;;13.44;100.00
13209;BME280;6669;42.678;23.332;2024-02-26T10:18:19;94044.19;;;13.49;100.00
13209;BME280;6669;42.678;23.332;2024-02-26T10:20:59;94044.63;;;13.46;100.00
13209;BME280;6669;42.678;23.332;2024-02-26T10:23:28;94041.97;;;13.52;100.00
13209;BME280;6669;42.678;23.332;2024-02-26T10:25:56;94038.97;;;13.55;100.00
13209;BME280;6669;42.678;23.332;2024-02-26T10:28:25;94044.38;;;13.54;100.00
13209;BME280;6669;42.678;23.332;2024-02-26T10:30:53;94035.16;;;13.58;100.00
13209;BME280;6669;42.678;23.332;2024-02-26T10:33:22;94033.94;;;13.54;100.00
13209;BME280;6669;42.678;23.332;2024-02-26T10:35:51;94032.38;;;13.39;100.00
13209;BME280;6669;42.678;23.332;2024-02-26T10:38:22;94025.06;;;13.62;100.00
13209;BME280;6669;42.678;23.332;2024-02-26T10:40:52;94020.66;;;13.69;100.00
13209;BME280;6669;42.678;23.332;2024-02-26T10:43:20;94028.03;;;13.85;100.00
13209;BME280;6669;42.678;23.332;2024-02-26T10:45:48;94020.97;;;13.93;100.00
13209;BME280;6669;42.678;23.332;2024-02-26T10:48:17;94014.34;;;13.90;100.00
13209;BME280;6669;42.678;23.332;2024-02-26T10:50:47;94026.19;;;13.86;100.00
13209;BME280;6669;42.678;23.332;2024-02-26T10:53:19;94021.44;;;13.76;100.00
13209;BME280;6669;42.678;23.332;2024-02-26T10:55:51;94015.00;;;13.79;100.00
13209;BME280;6669;42.678;23.332;2024-02-26T10:58:21;94008.38;;;13.76;100.00
13209;BME280;6669;42.678;23.332;2024-02-26T11:00:52;94007.66;;;14.01;100.00
13209;BME280;6669;42.678;23.332;2024-02-26T11:03:21;94001.56;;;14.14;100.00
13209;BME280;6669;42.678;23.332;2024-02-26T11:05:52;94013.81;;;14.20;100.00
13209;BME280;6669;42.678;23.332;2024-02-26T11:08:22;94005.56;;;14.16;100.00
13209;BME280;6669;42.678;23.332;2024-02-26T11:10:53;94001.91;;;14.24;100.00
13209;BME280;6669;42.678;23.332;2024-02-26T11:13:21;94004.69;;;14.36;100.00
13209;BME280;6669;42.678;23.332;2024-02-26T11:15:52;93994.28;;;14.22;100.00
13209;BME280;6669;42.678;23.332;2024-02-26T11:18:27;94004.34;;;14.19;100.00
13209;BME280;6669;42.678;23.332;2024-02-26T11:20:58;94006.44;;;14.10;100.00
13209;BME280;6669;42.678;23.332;2024-02-26T11:23:27;93997.53;;;14.18;100.00
13209;BME280;6669;42.678;23.332;2024-02-26T11:25:57;94002.69;;;14.31;100.00
13209;BME280;6669;42.678;23.332;2024-02-26T11:28:27;93998.72;;;14.22;100.00
13209;BME280;6669;42.678;23.332;2024-02-26T11:30:57;94005.38;;;14.18;100.00
13209;BME280;6669;42.678;23.332;2024-02-26T11:33:28;93993.06;;;14.25;100.00
13209;BME280;6669;42.678;23.332;2024-02-26T11:35:58;93995.06;;;14.30;100.00
13209;BME280;6669;42.678;23.332;2024-02-26T11:38:26;93994.06;;;14.24;100.00
13209;BME280;6669;42.678;23.332;2024-02-26T11:40:56;93997.63;;;14.36;100.00
13209;BME280;6669;42.678;23.332;2024-02-26T11:43:51;93994.44;;;14.34;100.00
13209;BME280;6669;42.678;23.332;2024-02-26T11:46:27;93997.84;;;14.35;100.00
13209;BME280;6669;42.678;23.332;2024-02-26T11:49:02;93986.22;;;14.31;100.00
13209;BME280;6669;42.678;23.332;2024-02-26T11:51:34;93968.41;;;14.07;100.00
13209;BME280;6669;42.678;23.332;2024-02-26T11:54:03;93986.31;;;14.11;100.00
13209;BME280;6669;42.678;23.332;2024-02-26T11:56:33;93982.03;;;14.16;100.00
13209;BME280;6669;42.678;23.332;2024-02-26T11:59:04;93981.25;;;14.16;100.00
13209;BME280;6669;42.678;23.332;2024-02-26T12:01:44;93979.78;;;14.27;100.00
13209;BME280;6669;42.678;23.332;2024-02-26T12:04:18;93977.03;;;14.47;100.00
13209;BME280;6669;42.678;23.332;2024-02-26T12:06:55;93979.69;;;14.40;100.00
13209;BME280;6669;42.678;23.332;2024-02-26T12:09:31;93983.50;;;14.44;100.00
13209;BME280;6669;42.678;23.332;2024-02-26T12:12:01;93990.16;;;14.40;100.00
13209;BME280;6669;42.678;23.332;2024-02-26T12:14:33;93981.25;;;14.48;100.00
13209;BME280;6669;42.678;23.332;2024-02-26T12:17:02;93981.63;;;14.51;100.00
13209;BME280;6669;42.678;23.332;2024-02-26T12:19:34;93985.44;;;14.55;100.00
13209;BME280;6669;42.678;23.332;2024-02-26T12:22:11;93987.34;;;14.42;100.00
13209;BME280;6669;42.678;23.332;2024-02-26T12:24:40;93984.16;;;14.39;100.00
13209;BME280;6669;42.678;23.332;2024-02-26T12:27:08;93986.38;;;14.68;100.00
13209;BME280;6669;42.678;23.332;2024-02-26T12:29:37;93991.78;;;14.98;100.00
13209;BME280;6669;42.678;23.332;2024-02-26T12:32:06;93988.91;;;15.44;100.00
13209;BME280;6669;42.678;23.332;2024-02-26T12:34:34;93983.28;;;15.65;100.00
13209;BME280;6669;42.678;23.332;2024-02-26T12:37:03;93988.94;;;15.62;100.00
13209;BME280;6669;42.678;23.332;2024-02-26T12:39:32;93977.00;;;15.66;100.00
13209;BME280;6669;42.678;23.332;2024-02-26T12:42:01;93988.94;;;15.81;100.00
13209;BME280;6669;42.678;23.332;2024-02-26T12:44:31;93988.19;;;16.11;100.00
13209;BME280;6669;42.678;23.332;2024-02-26T12:47:03;93987.75;;;16.14;100.00
13209;BME280;6669;42.678;23.332;2024-02-26T12:49:32;93980.19;;;16.36;100.00
13209;BME280;6669;42.678;23.332;2024-02-26T12:52:01;93972.78;;;16.45;99.47
13209;BME280;6669;42.678;23.332;2024-02-26T12:54:32;93984.03;;;16.76;97.32
13209;BME280;6669;42.678;23.332;2024-02-26T12:57:03;93976.28;;;16.81;94.31
13209;BME280;6669;42.678;23.332;2024-02-26T12:59:33;93973.25;;;16.96;92.05
13209;BME280;6669;42.678;23.332;2024-02-26T13:02:02;93968.47;;;16.93;91.55
13209;BME280;6669;42.678;23.332;2024-02-26T13:04:34;93972.41;;;16.72;93.89
13209;BME280;6669;42.678;23.332;2024-02-26T13:07:04;93969.97;;;16.58;92.17